createdAt,value
2022-11-26T00:01:22.054Z,98675.34
2022-11-26T00:03:49.818Z,98681.25
2022-11-26T00:06:33.397Z,98682.84
2022-11-26T00:09:01.101Z,98681.63
2022-11-26T00:11:28.370Z,98687.06
2022-11-26T00:13:55.357Z,98681.44
2022-11-26T00:16:22.346Z,98697.69
2022-11-26T00:18:49.265Z,98692.75
2022-11-26T00:21:21.360Z,98691.81
2022-11-26T00:23:48.401Z,98693.22
2022-11-26T00:26:18.019Z,98697.09
2022-11-26T00:28:52.273Z,98697.72
2022-11-26T00:31:19.189Z,98698.59
2022-11-26T00:33:46.183Z,98698.09
2022-11-26T00:36:18.518Z,98704.09
2022-11-26T00:38:52.501Z,98711.63
2022-11-26T00:41:22.607Z,98714.81
2022-11-26T00:43:49.891Z,98703.59
2022-11-26T00:46:21.497Z,98709.59
2022-11-26T00:48:48.722Z,98708.00
2022-11-26T00:51:18.838Z,98702.63
2022-11-26T00:53:46.717Z,98713.63
2022-11-26T00:56:18.770Z,98710.56
2022-11-26T00:58:47.054Z,98716.16
2022-11-26T01:01:23.551Z,98716.47
2022-11-26T01:03:50.921Z,98716.50
2022-11-26T01:06:34.519Z,98719.06
2022-11-26T01:09:01.907Z,98719.41
2022-11-26T01:11:28.798Z,98724.47
2022-11-26T01:13:56.124Z,98724.69
2022-11-26T01:16:26.358Z,98718.94
2022-11-26T01:18:54.960Z,98718.91
2022-11-26T01:21:22.949Z,98719.38
2022-11-26T01:23:49.865Z,98714.88
2022-11-26T01:26:19.150Z,98721.22
2022-11-26T01:28:46.188Z,98714.06
2022-11-26T01:31:17.399Z,98710.97
2022-11-26T01:33:45.127Z,98701.19
2022-11-26T01:36:33.095Z,98706.63
2022-11-26T01:39:07.084Z,98705.72
2022-11-26T01:41:39.950Z,98710.31
2022-11-26T01:44:11.181Z,98718.13
2022-11-26T01:46:39.038Z,98710.78
2022-11-26T01:49:22.226Z,98719.44
2022-11-26T01:51:53.838Z,98725.25
2022-11-26T01:54:20.783Z,98732.41
2022-11-26T01:56:51.626Z,98741.00
2022-11-26T01:59:22.795Z,98749.78
2022-11-26T02:01:51.506Z,98742.84
2022-11-26T02:04:29.354Z,98749.38
2022-11-26T02:06:56.837Z,98750.75
2022-11-26T02:09:24.678Z,98747.84
2022-11-26T02:11:51.556Z,98756.75
2022-11-26T02:14:21.526Z,98758.28
2022-11-26T02:16:54.469Z,98749.06
2022-11-26T02:19:49.183Z,98753.56
2022-11-26T02:22:36.990Z,98742.09
2022-11-26T02:25:15.989Z,98753.72
2022-11-26T02:28:26.377Z,98749.06
2022-11-26T02:31:11.406Z,98745.72
2022-11-26T02:34:02.026Z,98743.91
2022-11-26T02:36:35.271Z,98751.84
2022-11-26T02:39:15.020Z,98751.59
2022-11-26T02:41:43.656Z,98754.41
2022-11-26T02:44:10.898Z,98757.50
2022-11-26T02:46:39.446Z,98763.59
2022-11-26T02:49:06.872Z,98759.37
2022-11-26T02:51:35.073Z,98759.75
2022-11-26T02:54:02.250Z,98757.41
2022-11-26T02:56:29.759Z,98758.16
2022-11-26T02:58:57.411Z,98767.63
2022-11-26T03:02:00.986Z,98768.16
2022-11-26T03:04:31.407Z,98770.91
2022-11-26T03:07:02.557Z,98769.97
2022-11-26T03:09:40.410Z,98776.06
2022-11-26T03:12:07.719Z,98780.03
2022-11-26T03:14:34.800Z,98788.78
2022-11-26T03:17:01.854Z,98785.75
2022-11-26T03:19:28.732Z,98781.66
2022-11-26T03:21:55.643Z,98783.13
2022-11-26T03:24:22.548Z,98780.22
2022-11-26T03:26:49.421Z,98785.91
2022-11-26T03:29:16.311Z,98785.72
2022-11-26T03:31:43.236Z,98789.16
2022-11-26T03:34:10.127Z,98791.06
2022-11-26T03:36:37.015Z,98792.41
2022-11-26T03:39:04.136Z,98804.75
2022-11-26T03:41:31.138Z,98816.03
2022-11-26T03:43:58.091Z,98822.09
2022-11-26T03:46:25.293Z,98817.50
2022-11-26T03:48:52.210Z,98818.03
2022-11-26T03:51:19.067Z,98823.59
2022-11-26T03:53:45.999Z,98821.25
2022-11-26T03:56:13.001Z,98823.47
2022-11-26T03:58:40.161Z,98824.38
2022-11-26T04:01:12.464Z,98816.50
2022-11-26T04:03:40.075Z,98821.94
2022-11-26T04:06:07.563Z,98821.47
2022-11-26T04:08:34.450Z,98819.37
2022-11-26T04:11:01.574Z,98821.41
2022-11-26T04:13:28.479Z,98827.63
2022-11-26T04:15:55.356Z,98827.19
2022-11-26T04:18:22.298Z,98828.34
2022-11-26T04:20:53.047Z,98827.06
2022-11-26T04:23:20.559Z,98837.00
2022-11-26T04:25:47.419Z,98830.53
2022-11-26T04:28:15.357Z,98840.63
2022-11-26T04:30:43.213Z,98840.69
2022-11-26T04:33:10.273Z,98849.94
2022-11-26T04:35:38.146Z,98847.72
2022-11-26T04:38:05.037Z,98851.81
2022-11-26T04:40:31.976Z,98858.44
2022-11-26T04:42:58.886Z,98860.25
2022-11-26T04:45:25.952Z,98860.13
2022-11-26T04:47:53.140Z,98857.31
2022-11-26T04:50:20.652Z,98860.13
2022-11-26T04:52:48.673Z,98865.94
2022-11-26T04:55:16.566Z,98873.56
2022-11-26T04:57:43.662Z,98871.44
2022-11-26T05:00:11.506Z,98869.56
2022-11-26T05:02:38.441Z,98876.78
2022-11-26T05:05:05.649Z,98874.38
2022-11-26T05:07:32.748Z,98875.94
2022-11-26T05:09:59.765Z,98869.56
2022-11-26T05:12:26.629Z,98876.31
2022-11-26T05:14:53.573Z,98865.41
2022-11-26T05:17:20.473Z,98874.31
2022-11-26T05:19:47.360Z,98876.00
2022-11-26T05:22:15.151Z,98886.78
2022-11-26T05:24:41.985Z,98879.50
2022-11-26T05:27:09.096Z,98897.22
2022-11-26T05:29:35.981Z,98895.87
2022-11-26T05:32:02.699Z,98894.00
2022-11-26T05:34:29.742Z,98898.19
2022-11-26T05:36:56.595Z,98899.06
2022-11-26T05:39:23.265Z,98898.91
2022-11-26T05:41:50.160Z,98885.75
2022-11-26T05:44:17.065Z,98886.59
2022-11-26T05:46:44.016Z,98886.84
2022-11-26T05:49:11.046Z,98900.69
2022-11-26T05:51:37.971Z,98897.03
2022-11-26T05:54:04.953Z,98902.31
2022-11-26T05:56:31.813Z,98905.75
2022-11-26T05:58:58.499Z,98909.94
2022-11-26T06:01:25.346Z,98904.16
2022-11-26T06:03:52.088Z,98906.44
2022-11-26T06:06:18.978Z,98915.91
2022-11-26T06:08:45.884Z,98909.63
2022-11-26T06:11:13.715Z,98921.13
2022-11-26T06:13:40.742Z,98910.44
2022-11-26T06:16:08.371Z,98925.69
2022-11-26T06:18:37.450Z,98931.53
2022-11-26T06:21:05.881Z,98931.72
2022-11-26T06:23:34.178Z,98925.81
2022-11-26T06:26:01.273Z,98933.50
2022-11-26T06:28:28.186Z,98932.19
2022-11-26T06:30:55.082Z,98933.94
2022-11-26T06:33:21.910Z,98943.97
2022-11-26T06:35:48.606Z,98946.47
2022-11-26T06:38:15.505Z,98947.38
2022-11-26T06:40:42.397Z,98949.03
2022-11-26T06:43:09.306Z,98941.81
2022-11-26T06:45:36.309Z,98956.50
2022-11-26T06:48:03.308Z,98959.38
2022-11-26T06:50:30.206Z,98954.63
2022-11-26T06:52:57.060Z,98965.91
2022-11-26T06:55:23.745Z,98963.19
2022-11-26T06:57:51.962Z,98980.25
2022-11-26T07:00:19.516Z,98976.72
2022-11-26T07:02:46.444Z,98976.62
2022-11-26T07:05:13.340Z,98988.44
2022-11-26T07:07:40.646Z,98983.03
2022-11-26T07:10:08.437Z,99000.06
2022-11-26T07:12:35.337Z,98990.06
2022-11-26T07:15:02.245Z,98998.28
2022-11-26T07:17:29.546Z,98999.94
2022-11-26T07:19:56.459Z,98997.13
2022-11-26T07:22:23.314Z,99005.16
2022-11-26T07:24:50.038Z,99009.59
2022-11-26T07:27:17.140Z,99008.06
2022-11-26T07:29:44.139Z,99019.59
2022-11-26T07:32:11.294Z,99016.06
2022-11-26T07:34:38.392Z,99017.66
2022-11-26T07:37:05.438Z,99026.53
2022-11-26T07:39:32.355Z,99030.12
2022-11-26T07:41:59.304Z,99034.06
2022-11-26T07:44:26.171Z,99035.97
2022-11-26T07:46:53.064Z,99032.59
2022-11-26T07:49:20.054Z,99035.38
2022-11-26T07:51:46.932Z,99026.81
2022-11-26T07:54:13.811Z,99030.28
2022-11-26T07:56:40.743Z,99031.38
2022-11-26T07:59:07.621Z,99031.03
2022-11-26T08:01:34.621Z,99033.78
2022-11-26T08:04:05.411Z,99031.03
2022-11-26T08:06:32.508Z,99033.16
2022-11-26T08:09:00.291Z,99039.50
2022-11-26T08:11:29.132Z,99046.94
2022-11-26T08:13:58.760Z,99040.47
2022-11-26T08:16:28.634Z,99036.28
2022-11-26T08:18:59.443Z,99042.06
2022-11-26T08:21:26.901Z,99045.22
2022-11-26T08:23:54.623Z,99039.28
2022-11-26T08:26:27.377Z,99043.56
2022-11-26T08:28:58.029Z,99046.13
2022-11-26T08:31:27.935Z,99047.66
2022-11-26T08:34:01.368Z,99049.81
2022-11-26T08:36:29.107Z,99050.53
2022-11-26T08:38:58.528Z,99053.63
2022-11-26T08:41:25.494Z,99067.25
2022-11-26T08:44:06.284Z,99061.25
2022-11-26T08:46:34.482Z,99072.13
2022-11-26T08:49:01.369Z,99069.13
2022-11-26T08:51:28.357Z,99068.69
2022-11-26T08:53:55.214Z,99079.19
2022-11-26T08:56:22.016Z,99083.12
2022-11-26T08:58:49.247Z,99078.97
2022-11-26T09:01:21.928Z,99077.97
2022-11-26T09:03:50.372Z,99081.34
2022-11-26T09:06:18.358Z,99080.06
2022-11-26T09:09:05.252Z,99090.16
2022-11-26T09:11:35.098Z,99091.09
2022-11-26T09:14:02.810Z,99093.72
2022-11-26T09:16:29.856Z,99103.00
2022-11-26T09:18:58.880Z,99095.25
2022-11-26T09:21:25.737Z,99092.16
2022-11-26T09:23:52.585Z,99090.69
2022-11-26T09:26:21.505Z,99089.47
2022-11-26T09:28:49.112Z,99095.06
2022-11-26T09:31:16.744Z,99103.19
2022-11-26T09:33:43.864Z,99095.19
2022-11-26T09:36:13.188Z,99097.47
2022-11-26T09:38:40.967Z,99098.75
2022-11-26T09:41:14.089Z,99102.44
2022-11-26T09:43:53.276Z,99100.94
2022-11-26T09:46:40.800Z,99100.13
2022-11-26T09:49:18.239Z,99104.75
2022-11-26T09:51:47.507Z,99105.44
2022-11-26T09:54:18.512Z,99109.06
2022-11-26T09:56:45.385Z,99121.59
2022-11-26T09:59:18.015Z,99119.41
2022-11-26T10:01:45.199Z,99113.81
2022-11-26T10:04:28.789Z,99116.06
2022-11-26T10:07:06.558Z,99116.56
2022-11-26T10:09:40.810Z,99116.69
2022-11-26T10:12:26.623Z,99118.56
2022-11-26T10:15:09.575Z,99118.28
2022-11-26T10:17:47.360Z,99120.91
2022-11-26T10:20:36.810Z,99106.81
2022-11-26T10:23:12.853Z,99112.62
2022-11-26T10:25:43.608Z,99112.28
2022-11-26T10:28:20.545Z,99106.59
2022-11-26T10:30:53.499Z,99116.56
2022-11-26T10:33:20.904Z,99112.06
2022-11-26T10:35:49.986Z,99117.28
2022-11-26T10:38:17.732Z,99116.25
2022-11-26T10:40:44.633Z,99118.00
2022-11-26T10:43:23.783Z,99123.31
2022-11-26T10:45:53.118Z,99125.91
2022-11-26T10:48:26.661Z,99108.78
2022-11-26T10:51:02.727Z,99111.81
2022-11-26T10:53:32.780Z,99111.81
2022-11-26T10:56:01.131Z,99119.72
2022-11-26T10:58:31.438Z,99112.16
2022-11-26T11:01:00.801Z,99111.50
2022-11-26T11:06:22.040Z,99114.97
2022-11-26T11:08:49.571Z,99111.81
2022-11-26T11:11:23.518Z,99111.25
2022-11-26T11:13:50.465Z,99108.53
2022-11-26T11:16:38.836Z,99110.78
2022-11-26T11:19:16.808Z,99111.53
2022-11-26T11:21:48.140Z,99108.16
2022-11-26T11:24:24.254Z,99111.97
2022-11-26T11:26:54.942Z,99106.25
2022-11-26T11:29:28.898Z,99107.19
2022-11-26T11:31:57.703Z,99102.50
2022-11-26T11:34:33.991Z,99099.22
2022-11-26T11:37:14.842Z,99093.28
2022-11-26T11:39:42.796Z,99108.81
2022-11-26T11:42:32.432Z,99105.84
2022-11-26T11:45:00.301Z,99101.50
2022-11-26T11:47:45.587Z,99104.72
2022-11-26T11:50:25.041Z,99103.88
2022-11-26T11:53:13.588Z,99094.91
2022-11-26T11:56:02.797Z,99104.75
2022-11-26T11:58:59.215Z,99099.41
2022-11-26T12:01:41.591Z,99109.09
2022-11-26T12:04:45.799Z,99105.34
2022-11-26T12:07:34.145Z,99108.13
2022-11-26T12:10:21.133Z,99112.31
2022-11-26T12:12:54.149Z,99109.72
2022-11-26T12:15:30.536Z,99115.91
2022-11-26T12:18:24.405Z,99119.47
2022-11-26T12:20:55.436Z,99116.41
2022-11-26T12:23:45.411Z,99115.97
2022-11-26T12:26:26.786Z,99122.06
2022-11-26T12:29:18.987Z,99126.22
2022-11-26T12:31:49.400Z,99133.56
2022-11-26T12:34:32.275Z,99130.13
2022-11-26T12:37:13.172Z,99129.44
2022-11-26T12:39:58.857Z,99121.62
2022-11-26T12:42:28.372Z,99129.12
2022-11-26T12:44:57.838Z,99122.38
2022-11-26T12:47:32.368Z,99123.13
2022-11-26T12:50:02.250Z,99127.03
2022-11-26T12:52:41.108Z,99134.06
2022-11-26T12:55:21.623Z,99125.91
2022-11-26T12:57:53.551Z,99121.66
2022-11-26T13:00:36.028Z,99127.75
2022-11-26T13:03:05.875Z,99117.97
2022-11-26T13:05:56.279Z,99111.13
2022-11-26T13:08:52.157Z,99110.06
2022-11-26T13:11:34.943Z,99113.12
2022-11-26T13:14:22.505Z,99110.41
2022-11-26T13:17:02.905Z,99112.41
2022-11-26T13:19:42.045Z,99112.53
2022-11-26T13:22:24.991Z,99114.63
2022-11-26T13:24:54.917Z,99119.47
2022-11-26T13:27:40.189Z,99122.44
2022-11-26T13:30:24.205Z,99122.25
2022-11-26T13:32:50.994Z,99123.91
2022-11-26T13:35:23.640Z,99127.78
2022-11-26T13:38:21.211Z,99132.50
2022-11-26T13:41:08.481Z,99132.47
2022-11-26T13:43:53.717Z,99142.03
2022-11-26T13:46:29.461Z,99149.75
2022-11-26T13:48:56.387Z,99153.50
2022-11-26T13:51:26.302Z,99156.97
2022-11-26T13:53:56.089Z,99150.66
2022-11-26T13:56:26.415Z,99161.16
2022-11-26T13:59:00.296Z,99164.25
2022-11-26T14:01:37.071Z,99165.22
2022-11-26T14:04:07.985Z,99168.59
2022-11-26T14:06:35.398Z,99168.47
2022-11-26T14:09:03.069Z,99169.69
2022-11-26T14:11:41.957Z,99167.97
2022-11-26T14:14:24.088Z,99173.56
2022-11-26T14:17:03.259Z,99167.44
2022-11-26T14:19:45.071Z,99162.37
2022-11-26T14:22:11.880Z,99160.66
2022-11-26T14:24:53.428Z,99162.81
2022-11-26T14:27:21.612Z,99170.59
2022-11-26T14:29:54.382Z,99174.75
2022-11-26T14:32:24.240Z,99172.69
2022-11-26T14:34:56.423Z,99180.00
2022-11-26T14:37:32.241Z,99178.56
2022-11-26T14:40:23.305Z,99182.62
2022-11-26T14:43:06.835Z,99183.56
2022-11-26T14:45:33.891Z,99178.19
2022-11-26T14:48:02.508Z,99189.03
2022-11-26T14:50:30.740Z,99183.56
2022-11-26T14:53:04.061Z,99187.91
2022-11-26T14:55:31.838Z,99189.22
2022-11-26T14:58:12.597Z,99189.03
2022-11-26T15:00:39.553Z,99195.88
2022-11-26T15:03:25.599Z,99193.97
2022-11-26T15:05:52.580Z,99187.53
2022-11-26T15:08:20.599Z,99190.63
2022-11-26T15:11:03.345Z,99186.03
2022-11-26T15:13:38.716Z,99188.56
2022-11-26T15:16:27.418Z,99190.31
2022-11-26T15:18:54.772Z,99186.00
2022-11-26T15:21:24.656Z,99180.34
2022-11-26T15:23:52.089Z,99188.03
2022-11-26T15:26:20.007Z,99180.25
2022-11-26T15:28:46.902Z,99181.41
2022-11-26T15:31:13.906Z,99182.75
2022-11-26T15:33:41.639Z,99185.94
2022-11-26T15:36:14.258Z,99182.72
2022-11-26T15:39:03.243Z,99177.19
2022-11-26T15:41:30.746Z,99175.28
2022-11-26T15:44:01.360Z,99177.03
2022-11-26T15:46:29.609Z,99171.75
2022-11-26T15:49:06.039Z,99170.47
2022-11-26T15:51:41.195Z,99174.06
2022-11-26T15:54:49.726Z,99183.66
2022-11-26T15:57:26.816Z,99189.03
2022-11-26T15:59:56.994Z,99184.69
2022-11-26T16:02:25.740Z,99174.16
2022-11-26T16:04:55.003Z,99182.22
2022-11-26T16:07:27.792Z,99178.66
2022-11-26T16:10:16.805Z,99186.31
2022-11-26T16:12:45.146Z,99181.44
2022-11-26T16:15:23.934Z,99182.25
2022-11-26T16:17:51.297Z,99184.00
2022-11-26T16:20:21.983Z,99187.50
2022-11-26T16:22:53.540Z,99186.97
2022-11-26T16:25:31.925Z,99183.34
2022-11-26T16:28:10.867Z,99190.88
2022-11-26T16:30:38.925Z,99186.72
2022-11-26T16:33:06.675Z,99185.09
2022-11-26T16:35:49.144Z,99185.81
2022-11-26T16:38:22.103Z,99189.38
2022-11-26T16:40:49.905Z,99187.78
2022-11-26T16:43:16.905Z,99188.22
2022-11-26T16:45:43.904Z,99189.59
2022-11-26T16:48:22.815Z,99198.72
2022-11-26T16:50:49.738Z,99192.31
2022-11-26T16:53:16.726Z,99205.12
2022-11-26T16:55:43.603Z,99213.50
2022-11-26T16:58:26.000Z,99212.84
2022-11-26T17:00:53.114Z,99213.75
2022-11-26T17:03:22.838Z,99214.25
2022-11-26T17:05:52.789Z,99220.75
2022-11-26T17:08:20.019Z,99220.66
2022-11-26T17:10:47.761Z,99217.94
2022-11-26T17:13:15.604Z,99214.97
2022-11-26T17:15:43.346Z,99220.47
2022-11-26T17:18:19.109Z,99213.03
2022-11-26T17:20:46.022Z,99224.66
2022-11-26T17:23:13.286Z,99219.09
2022-11-26T17:25:40.366Z,99219.66
2022-11-26T17:28:14.030Z,99217.41
2022-11-26T17:30:41.960Z,99213.78
2022-11-26T17:33:09.532Z,99212.84
2022-11-26T17:35:36.747Z,99216.47
2022-11-26T17:38:04.996Z,99218.53
2022-11-26T17:40:32.694Z,99225.41
2022-11-26T17:42:59.650Z,99225.63
2022-11-26T17:45:26.528Z,99220.69
2022-11-26T17:47:53.577Z,99217.78
2022-11-26T17:50:26.260Z,99220.88
2022-11-26T17:52:54.762Z,99222.63
2022-11-26T17:55:26.008Z,99222.22
2022-11-26T17:57:53.122Z,99218.00
2022-11-26T18:00:24.754Z,99214.19
2022-11-26T18:02:51.950Z,99213.44
2022-11-26T18:05:18.959Z,99215.00
2022-11-26T18:07:46.020Z,99218.59
2022-11-26T18:10:15.456Z,99214.06
2022-11-26T18:12:43.624Z,99218.06
2022-11-26T18:15:17.918Z,99223.13
2022-11-26T18:17:52.835Z,99223.78
2022-11-26T18:20:21.654Z,99216.22
2022-11-26T18:22:53.371Z,99227.50
2022-11-26T18:25:20.501Z,99226.47
2022-11-26T18:27:47.420Z,99216.09
2022-11-26T18:30:14.544Z,99221.25
2022-11-26T18:32:41.433Z,99220.72
2022-11-26T18:35:08.719Z,99220.25
2022-11-26T18:37:36.876Z,99226.88
2022-11-26T18:40:04.630Z,99219.47
2022-11-26T18:42:38.990Z,99227.00
2022-11-26T18:45:08.156Z,99224.13
2022-11-26T18:47:35.064Z,99218.53
2022-11-26T18:50:01.991Z,99223.31
2022-11-26T18:52:28.840Z,99213.72
2022-11-26T18:54:55.732Z,99212.97
2022-11-26T18:57:22.756Z,99224.72
2022-11-26T18:59:50.719Z,99218.75
2022-11-26T19:02:17.904Z,99223.56
2022-11-26T19:04:44.884Z,99218.69
2022-11-26T19:07:12.924Z,99218.97
2022-11-26T19:09:40.482Z,99224.31
2022-11-26T19:12:07.733Z,99226.78
2022-11-26T19:14:34.604Z,99222.81
2022-11-26T19:17:01.536Z,99221.91
2022-11-26T19:19:28.444Z,99225.75
2022-11-26T19:22:01.096Z,99223.72
2022-11-26T19:24:28.863Z,99223.94
2022-11-26T19:26:55.866Z,99236.22
2022-11-26T19:29:22.845Z,99236.03
2022-11-26T19:31:49.804Z,99223.97
2022-11-26T19:34:16.972Z,99238.50
2022-11-26T19:36:48.637Z,99238.41
2022-11-26T19:39:16.452Z,99237.38
2022-11-26T19:41:43.395Z,99242.88
2022-11-26T19:44:10.296Z,99231.37
2022-11-26T19:46:40.946Z,99234.41
2022-11-26T19:49:12.953Z,99230.91
2022-11-26T19:51:40.867Z,99231.41
2022-11-26T19:54:07.960Z,99227.28
2022-11-26T19:56:35.156Z,99229.56
2022-11-26T19:59:02.512Z,99230.28
2022-11-26T20:01:31.413Z,99236.56
2022-11-26T20:04:04.284Z,99226.91
2022-11-26T20:06:32.828Z,99233.44
2022-11-26T20:08:59.755Z,99234.28
2022-11-26T20:11:27.720Z,99226.97
2022-11-26T20:13:55.582Z,99239.81
2022-11-26T20:16:26.265Z,99245.84
2022-11-26T20:18:53.373Z,99239.94
2022-11-26T20:21:26.227Z,99248.94
2022-11-26T20:23:54.442Z,99251.25
2022-11-26T20:26:28.075Z,99249.75
2022-11-26T20:28:55.830Z,99241.44
2022-11-26T20:31:24.220Z,99251.25
2022-11-26T20:33:55.209Z,99241.00
2022-11-26T20:36:23.320Z,99231.69
2022-11-26T20:38:59.147Z,99234.34
2022-11-26T20:41:26.744Z,99230.87
2022-11-26T20:43:58.455Z,99238.53
2022-11-26T20:46:27.772Z,99221.91
2022-11-26T20:48:54.842Z,99224.53
2022-11-26T20:51:22.340Z,99223.78
2022-11-26T20:53:50.861Z,99238.41
2022-11-26T20:56:20.268Z,99246.81
2022-11-26T20:58:48.468Z,99246.81
2022-11-26T21:01:20.702Z,99238.31
2022-11-26T21:03:48.362Z,99237.91
2022-11-26T21:06:16.592Z,99240.13
2022-11-26T21:08:43.588Z,99246.53
2022-11-26T21:11:11.634Z,99252.91
2022-11-26T21:13:39.003Z,99249.97
2022-11-26T21:16:08.112Z,99258.78
2022-11-26T21:18:34.987Z,99252.50
2022-11-26T21:21:11.103Z,99249.88
2022-11-26T21:23:39.376Z,99242.06
2022-11-26T21:26:11.219Z,99238.97
2022-11-26T21:28:38.596Z,99238.72
2022-11-26T21:31:12.082Z,99246.84
2022-11-26T21:33:39.014Z,99242.50
2022-11-26T21:36:10.544Z,99246.37
2022-11-26T21:38:37.645Z,99250.22
2022-11-26T21:41:12.762Z,99245.19
2022-11-26T21:43:40.331Z,99251.56
2022-11-26T21:46:09.919Z,99258.00
2022-11-26T21:48:36.855Z,99251.38
2022-11-26T21:51:08.132Z,99256.19
2022-11-26T21:53:35.131Z,99258.41
2022-11-26T21:56:18.694Z,99251.88
2022-11-26T21:58:45.707Z,99257.25
2022-11-26T22:01:15.082Z,99261.59
2022-11-26T22:03:47.288Z,99257.09
2022-11-26T22:06:14.830Z,99255.66
2022-11-26T22:08:42.137Z,99258.91
2022-11-26T22:11:16.989Z,99253.84
2022-11-26T22:13:43.955Z,99254.66
2022-11-26T22:16:12.615Z,99253.19
2022-11-26T22:18:41.649Z,99251.09
2022-11-26T22:21:14.625Z,99253.13
2022-11-26T22:23:41.553Z,99242.34
2022-11-26T22:26:08.610Z,99246.16
2022-11-26T22:28:35.722Z,99241.03
2022-11-26T22:31:21.963Z,99247.37
2022-11-26T22:33:50.116Z,99236.84
2022-11-26T22:36:17.009Z,99234.38
2022-11-26T22:38:43.958Z,99236.91
2022-11-26T22:41:13.093Z,99231.44
2022-11-26T22:43:40.621Z,99236.81
2022-11-26T22:46:11.118Z,99237.63
2022-11-26T22:48:38.358Z,99240.19
2022-11-26T22:51:05.657Z,99243.56
2022-11-26T22:53:35.497Z,99229.47
2022-11-26T22:56:04.160Z,99237.41
2022-11-26T22:58:32.122Z,99237.28
2022-11-26T23:01:06.674Z,99234.97
2022-11-26T23:03:36.084Z,99238.84
2022-11-26T23:06:05.495Z,99233.41
2022-11-26T23:08:33.057Z,99235.72
2022-11-26T23:11:05.517Z,99237.81
2022-11-26T23:13:32.443Z,99230.53
2022-11-26T23:15:59.453Z,99231.34
2022-11-26T23:18:26.390Z,99233.09
2022-11-26T23:21:03.922Z,99227.78
2022-11-26T23:23:30.805Z,99230.31
2022-11-26T23:25:57.650Z,99236.66
2022-11-26T23:28:24.543Z,99241.00
2022-11-26T23:30:51.438Z,99236.34
2022-11-26T23:33:18.291Z,99236.59
2022-11-26T23:35:45.156Z,99236.13
2022-11-26T23:38:12.043Z,99232.75
2022-11-26T23:40:38.965Z,99233.66
2022-11-26T23:43:08.619Z,99240.81
2022-11-26T23:45:35.757Z,99234.22
2022-11-26T23:48:02.604Z,99234.00
2022-11-26T23:50:30.264Z,99236.28
2022-11-26T23:52:57.132Z,99234.69
2022-11-26T23:55:24.012Z,99230.06
2022-11-26T23:57:50.894Z,99232.53
